Time;durP1;ratioP1;P1;durP2;ratioP2;P2;SDS_P1;SDS_P2;PMS_P1;PMS_P2;Temp;Humidity;BMP_temperature;BMP_pressure;BME280_temperature;BME280_humidity;BME280_pressure;Samples;Min_cycle;Max_cycle;Signal;HPM_P1;HPM_P2
2022/05/03 00:01:55;;;;;;;6.07;5.00;;;15.00;99.20;;;;;;4975421;28;20022;-76
2022/05/03 00:04:32;;;;;;;4.72;4.32;;;15.10;99.30;;;;;;4976246;28;20595;-77
2022/05/03 00:07:23;;;;;;;5.00;4.25;;;15.10;99.20;;;;;;4974909;28;20121;-77
2022/05/03 00:09:54;;;;;;;5.25;4.43;;;15.10;99.30;;;;;;4976283;28;20030;-78
2022/05/03 00:12:27;;;;;;;5.00;4.60;;;15.10;99.20;;;;;;4976089;28;20030;-78
2022/05/03 00:14:58;;;;;;;5.40;4.90;;;15.20;99.00;;;;;;4958674;28;20437;-78
2022/05/03 00:17:25;;;;;;;5.75;5.22;;;15.20;99.10;;;;;;4975967;28;20063;-78
2022/05/03 00:19:53;;;;;;;5.03;4.55;;;15.20;99.30;;;;;;4975911;28;20106;-78
2022/05/03 00:22:22;;;;;;;4.93;4.22;;;15.20;99.30;;;;;;4975861;28;20023;-78
2022/05/03 00:24:54;;;;;;;5.35;4.90;;;15.20;99.20;;;;;;4975517;28;20492;-78
2022/05/03 00:27:24;;;;;;;4.90;4.50;;;15.20;99.40;;;;;;4975600;28;20118;-78
2022/05/03 00:29:53;;;;;;;5.22;4.82;;;15.20;99.50;;;;;;4975787;28;20560;-78
2022/05/03 00:32:21;;;;;;;4.88;4.03;;;15.10;99.60;;;;;;4975704;28;20015;-78
2022/05/03 00:34:48;;;;;;;4.72;4.18;;;15.10;99.70;;;;;;4975527;28;20089;-78
2022/05/03 00:37:14;;;;;;;7.03;4.18;;;15.10;99.90;;;;;;4975545;28;20033;-78
2022/05/03 00:39:40;;;;;;;4.78;4.22;;;15.10;99.70;;;;;;4958017;28;20481;-78
2022/05/03 00:42:14;;;;;;;5.97;4.00;;;15.10;99.70;;;;;;4975305;28;20026;-78
2022/05/03 00:45:01;;;;;;;4.30;4.00;;;15.10;99.90;;;;;;4975306;28;20216;-78
2022/05/03 00:47:49;;;;;;;5.45;3.97;;;15.10;99.90;;;;;;4975271;28;20034;-78
2022/05/03 00:50:42;;;;;;;5.05;4.57;;;15.00;99.90;;;;;;4975179;28;20054;-78
2022/05/03 00:53:20;;;;;;;5.05;4.10;;;15.00;99.90;;;;;;4975239;28;20054;-78
2022/05/03 00:55:48;;;;;;;4.47;4.10;;;14.90;99.90;;;;;;4975184;28;20047;-78
2022/05/03 00:58:20;;;;;;;3.33;3.10;;;14.90;99.90;;;;;;4973851;28;20396;-78
2022/05/03 01:01:15;;;;;;;3.85;3.55;;;14.90;99.90;;;;;;4973774;28;20154;-78
2022/05/03 01:04:10;;;;;;;7.93;3.80;;;14.90;99.90;;;;;;4974946;28;20030;-78
2022/05/03 01:06:41;;;;;;;3.80;3.50;;;14.90;99.90;;;;;;4975071;28;20027;-78
2022/05/03 01:09:09;;;;;;;4.90;4.32;;;14.90;99.90;;;;;;4975035;28;20015;-78
2022/05/03 01:11:53;;;;;;;4.60;3.60;;;14.90;99.90;;;;;;4974880;28;20027;-78
2022/05/03 01:14:45;;;;;;;5.00;3.95;;;14.90;99.90;;;;;;4974846;28;20035;-78
2022/05/03 01:17:25;;;;;;;3.90;3.60;;;14.90;99.90;;;;;;4974834;28;20493;-77
2022/05/03 01:20:05;;;;;;;4.28;3.50;;;14.90;99.90;;;;;;4974758;28;20030;-78
2022/05/03 01:23:05;;;;;;;3.63;3.33;;;14.90;99.90;;;;;;4974498;28;20035;-77
2022/05/03 01:25:46;;;;;;;4.00;3.53;;;15.00;99.90;;;;;;4973083;28;20500;-78
2022/05/03 01:28:15;;;;;;;4.55;3.60;;;15.00;99.80;;;;;;4972556;28;20090;-78
2022/05/03 01:30:48;;;;;;;3.80;3.50;;;15.00;99.70;;;;;;4973546;28;20444;-78
2022/05/03 01:33:17;;;;;;;7.93;3.50;;;15.10;99.70;;;;;;4973143;28;20019;-78
2022/05/03 01:35:50;;;;;;;5.20;3.72;;;15.10;99.80;;;;;;4992563;28;20105;-78
2022/05/03 01:38:57;;;;;;;6.18;3.38;;;15.10;99.80;;;;;;4992577;28;20029;-78
2022/05/03 01:41:42;;;;;;;5.28;3.70;;;15.10;99.50;;;;;;4954732;28;20050;-78
2022/05/03 01:44:14;;;;;;;4.18;3.70;;;15.10;99.50;;;;;;4992872;28;20031;-78
2022/05/03 01:46:40;;;;;;;4.10;3.63;;;15.10;99.40;;;;;;4975571;28;20425;-78
2022/05/03 01:52:10;;;;;;;4.07;3.78;;;15.10;99.50;;;;;;4992638;28;20120;-78
2022/05/03 01:55:04;;;;;;;4.10;3.67;;;15.10;99.50;;;;;;4992612;28;20041;-78
2022/05/03 01:57:33;;;;;;;6.93;3.88;;;15.10;99.50;;;;;;4992686;28;20034;-77
2022/05/03 02:00:05;;;;;;;7.60;3.40;;;15.10;99.60;;;;;;4975578;28;20456;-78
2022/05/03 02:02:49;;;;;;;3.67;3.35;;;15.00;99.90;;;;;;4993325;28;20058;-78
2022/05/03 02:05:34;;;;;;;7.03;3.90;;;15.00;99.90;;;;;;4993522;28;20459;-77
2022/05/03 02:08:01;;;;;;;3.72;3.35;;;14.90;99.90;;;;;;4993488;28;20030;-77
2022/05/03 02:10:39;;;;;;;4.40;3.92;;;14.90;99.90;;;;;;4993493;28;20388;-77
2022/05/03 02:14:44;;;;;;;3.70;3.50;;;14.90;99.90;;;;;;4993390;28;20069;-77
2022/05/03 02:16:29;;;;;;;4.40;4.10;;;14.90;99.90;;;;;;4993109;28;20519;-78
2022/05/03 02:18:55;;;;;;;;;;;14.90;99.90;;;;;;4976433;28;20119;-77
2022/05/03 02:21:32;;;;;;;4.45;3.58;;;14.90;99.90;;;;;;4993398;28;19964;-77
2022/05/03 02:24:11;;;;;;;3.72;3.47;;;14.80;99.90;;;;;;4993274;28;20085;-77
2022/05/03 02:26:49;;;;;;;10.43;3.67;;;14.80;99.90;;;;;;4993332;28;20046;-77
2022/05/03 02:29:35;;;;;;;3.75;3.45;;;14.80;99.90;;;;;;4993346;28;20032;-78
2022/05/03 02:32:05;;;;;;;3.60;3.30;;;14.80;99.90;;;;;;4993150;28;20396;-77
2022/05/03 02:34:34;;;;;;;3.67;3.40;;;14.80;99.90;;;;;;4993215;28;20054;-77
2022/05/03 02:37:07;;;;;;;4.47;3.55;;;14.70;99.90;;;;;;4975852;28;20062;-77
2022/05/03 02:39:38;;;;;;;5.63;3.88;;;14.70;99.90;;;;;;4993325;28;20511;-77
2022/05/03 02:42:05;;;;;;;4.32;3.92;;;14.70;99.90;;;;;;4993249;28;20105;-78
2022/05/03 02:44:34;;;;;;;4.90;3.53;;;14.70;99.90;;;;;;4993244;28;20037;-77
2022/05/03 02:47:05;;;;;;;8.35;3.80;;;14.80;99.90;;;;;;4996170;28;20034;-78
2022/05/03 02:49:37;;;;;;;3.60;3.30;;;14.80;99.90;;;;;;4997003;28;20057;-77
2022/05/03 02:52:25;;;;;;;4.00;3.63;;;14.80;99.90;;;;;;4979396;28;20077;-77
2022/05/03 02:55:03;;;;;;;3.95;3.65;;;14.80;99.90;;;;;;4996804;28;20027;-78
2022/05/03 02:57:51;;;;;;;3.83;3.58;;;14.60;99.90;;;;;;4996735;28;20034;-77
2022/05/03 03:03:17;;;;;;;5.13;4.05;;;14.40;99.90;;;;;;4996658;28;20069;-78
2022/05/03 03:05:53;;;;;;;4.20;3.90;;;14.30;99.90;;;;;;4996572;28;20096;-78
2022/05/03 03:08:21;;;;;;;5.55;4.07;;;14.30;99.90;;;;;;4996622;28;20396;-77
2022/05/03 03:11:00;;;;;;;4.13;3.85;;;14.20;99.90;;;;;;4996469;28;20030;-78
2022/05/03 03:13:40;;;;;;;4.18;3.88;;;14.10;99.90;;;;;;4996516;28;20033;-78
2022/05/03 03:16:13;;;;;;;4.43;4.03;;;14.10;99.90;;;;;;4996476;28;20396;-78
2022/05/03 03:18:43;;;;;;;4.70;4.32;;;14.10;99.90;;;;;;4996314;28;20027;-78
2022/05/03 03:21:14;;;;;;;3.97;3.58;;;14.10;99.90;;;;;;4978804;28;20032;-78
2022/05/03 03:23:41;;;;;;;3.58;3.35;;;14.00;99.90;;;;;;4996260;28;20026;-78
2022/05/03 03:26:09;;;;;;;4.38;4.05;;;14.00;99.90;;;;;;4996268;28;20032;-78
2022/05/03 03:28:36;;;;;;;10.00;4.32;;;14.00;99.90;;;;;;4996151;28;20026;-78
2022/05/03 03:31:05;;;;;;;8.13;4.95;;;14.00;99.90;;;;;;4996139;28;20089;-77
2022/05/03 03:33:34;;;;;;;4.20;3.90;;;14.00;99.90;;;;;;4996090;28;20061;-78
2022/05/03 03:36:03;;;;;;;4.32;3.92;;;14.00;99.90;;;;;;4996072;28;20069;-78
2022/05/03 03:38:44;;;;;;;5.15;4.15;;;14.10;99.90;;;;;;4995889;28;20029;-78
2022/05/03 03:41:09;;;;;;;5.05;4.60;;;14.10;99.90;;;;;;4977254;28;20026;-78
2022/05/03 03:43:36;;;;;;;4.38;3.97;;;14.10;99.90;;;;;;4994031;28;20096;-78
2022/05/03 03:46:01;;;;;;;6.80;4.20;;;14.10;99.90;;;;;;4994789;28;20022;-78
2022/05/03 03:48:28;;;;;;;4.32;3.92;;;14.00;99.90;;;;;;4994814;28;20032;-78
2022/05/03 03:50:55;;;;;;;4.72;4.32;;;14.00;99.90;;;;;;4995779;28;20097;-78
2022/05/03 03:53:22;;;;;;;4.95;4.55;;;14.00;99.90;;;;;;4978342;28;20134;-78
2022/05/03 03:55:49;;;;;;;4.63;4.22;;;14.00;99.90;;;;;;4974932;28;20448;-78
2022/05/03 03:58:17;;;;;;;5.78;4.63;;;13.90;99.90;;;;;;4975961;28;20105;-78
2022/05/03 04:00:43;;;;;;;5.97;3.92;;;13.90;99.90;;;;;;4974920;28;20488;-78
2022/05/03 04:03:09;;;;;;;7.13;4.07;;;13.90;99.90;;;;;;4976237;28;20053;-78
2022/05/03 04:05:35;;;;;;;4.72;4.32;;;13.90;99.90;;;;;;4974764;28;20388;-77
2022/05/03 04:08:01;;;;;;;4.65;4.05;;;13.80;99.90;;;;;;4976160;28;20027;-78
2022/05/03 04:10:27;;;;;;;5.20;4.45;;;13.90;99.90;;;;;;4974705;28;20023;-78
2022/05/03 04:12:53;;;;;;;4.47;4.07;;;13.80;99.90;;;;;;4976172;28;20025;-77
2022/05/03 04:15:18;;;;;;;5.05;4.65;;;13.80;99.90;;;;;;4975935;28;20508;-78
2022/05/03 04:17:45;;;;;;;5.88;4.60;;;13.80;99.90;;;;;;4975912;28;20022;-78
2022/05/03 04:20:12;;;;;;;6.35;3.92;;;13.80;99.90;;;;;;4975844;28;20641;-78
2022/05/03 04:22:38;;;;;;;5.95;4.47;;;13.80;99.90;;;;;;4975831;28;20031;-77
2022/05/03 04:25:04;;;;;;;5.93;4.75;;;13.70;99.90;;;;;;4975699;28;20058;-77
2022/05/03 04:27:30;;;;;;;4.80;4.40;;;13.70;99.90;;;;;;4975657;28;20025;-78
2022/05/03 04:29:58;;;;;;;6.03;4.20;;;13.70;99.90;;;;;;4975816;28;20050;-78
2022/05/03 04:32:29;;;;;;;5.45;4.65;;;13.60;99.90;;;;;;4975990;28;20401;-78
2022/05/03 04:34:55;;;;;;;5.10;4.53;;;13.60;99.90;;;;;;4975582;28;20023;-78
2022/05/03 04:37:21;;;;;;;3.97;3.65;;;13.60;99.90;;;;;;4975484;28;20053;-78
2022/05/03 04:39:46;;;;;;;8.80;5.00;;;13.60;99.90;;;;;;4975591;28;20057;-78
2022/05/03 04:42:12;;;;;;;7.38;4.63;;;13.60;99.90;;;;;;4974140;28;20030;-78
2022/05/03 04:44:38;;;;;;;5.90;5.18;;;13.60;99.90;;;;;;4975410;28;20026;-77
2022/05/03 04:47:04;;;;;;;8.07;4.72;;;13.60;99.90;;;;;;4975328;28;20126;-77
2022/05/03 04:49:30;;;;;;;5.07;4.57;;;13.60;99.90;;;;;;4975360;28;20022;-77
2022/05/03 04:51:59;;;;;;;5.90;4.68;;;13.60;99.90;;;;;;4975194;28;20031;-77
2022/05/03 04:54:25;;;;;;;4.65;4.25;;;13.60;99.90;;;;;;4975285;28;20058;-78
2022/05/03 04:56:56;;;;;;;5.70;5.18;;;13.50;99.90;;;;;;4993188;28;20089;-75
2022/05/03 04:59:22;;;;;;;6.60;5.32;;;13.60;99.90;;;;;;4994563;28;20036;-78
2022/05/03 05:01:48;;;;;;;5.35;4.13;;;13.50;99.90;;;;;;5049997;23;20050;-76
2022/05/03 05:04:13;;;;;;;5.40;4.90;;;13.60;99.90;;;;;;5012748;28;20053;-76
2022/05/03 05:06:39;;;;;;;4.85;4.45;;;13.60;99.90;;;;;;5012601;28;20028;-76
2022/05/03 05:09:05;;;;;;;6.97;4.45;;;13.70;99.90;;;;;;5010743;28;20028;-76
2022/05/03 05:11:31;;;;;;;5.60;5.03;;;13.70;99.90;;;;;;4995212;28;20113;-76
2022/05/03 05:13:56;;;;;;;6.57;4.47;;;13.80;99.90;;;;;;5013840;28;20030;-76
2022/05/03 05:16:22;;;;;;;6.30;4.93;;;13.80;99.90;;;;;;4996224;28;20034;-76
2022/05/03 05:18:48;;;;;;;5.40;4.93;;;13.90;99.90;;;;;;5013859;28;20029;-76
2022/05/03 05:21:13;;;;;;;4.57;4.15;;;13.90;99.90;;;;;;5013655;28;20475;-76
2022/05/03 05:23:39;;;;;;;6.78;4.55;;;13.90;99.90;;;;;;5013785;28;20438;-76
2022/05/03 05:26:05;;;;;;;4.80;4.38;;;13.80;99.90;;;;;;5013488;28;20596;-76
2022/05/03 05:28:30;;;;;;;6.78;4.55;;;13.90;99.90;;;;;;5012053;28;20030;-77
2022/05/03 05:30:56;;;;;;;7.50;4.57;;;13.90;99.90;;;;;;5013557;28;20026;-77
2022/05/03 05:33:23;;;;;;;7.78;5.50;;;13.90;99.90;;;;;;5013488;28;20052;-77
2022/05/03 05:35:52;;;;;;;7.30;5.50;;;14.00;99.90;;;;;;5013358;28;20139;-76
2022/05/03 05:38:18;;;;;;;5.03;4.63;;;14.00;99.90;;;;;;5013296;28;20030;-77
2022/05/03 05:40:46;;;;;;;5.50;4.97;;;14.00;99.90;;;;;;5013411;28;20152;-77
2022/05/03 05:43:12;;;;;;;6.10;4.95;;;14.00;99.90;;;;;;4995594;28;20033;-77
2022/05/03 05:45:41;;;;;;;6.22;4.82;;;14.10;99.90;;;;;;4995756;28;20021;-77
2022/05/03 05:48:08;;;;;;;5.18;4.68;;;14.10;99.90;;;;;;5011821;28;20033;-76
2022/05/03 05:50:34;;;;;;;6.47;4.95;;;14.20;99.90;;;;;;4995721;28;20029;-76
2022/05/03 05:55:45;;;;;;;5.43;4.55;;;14.40;99.90;;;;;;5013564;28;20494;-77
2022/05/03 05:58:11;;;;;;;6.07;4.72;;;14.50;99.90;;;;;;4995564;28;20022;-77
2022/05/03 06:00:37;;;;;;;5.88;4.50;;;14.60;99.90;;;;;;5013252;28;20029;-77
2022/05/03 06:03:05;;;;;;;6.60;4.70;;;14.70;99.90;;;;;;4995387;28;20077;-76
2022/05/03 06:05:32;;;;;;;5.18;4.70;;;14.70;99.90;;;;;;5013147;28;20018;-77
2022/05/03 06:07:58;;;;;;;5.55;4.88;;;14.80;99.90;;;;;;5013129;28;20105;-77
2022/05/03 06:10:24;;;;;;;7.68;4.88;;;14.90;99.90;;;;;;4995274;28;20483;-77
2022/05/03 06:12:53;;;;;;;6.47;4.60;;;14.90;99.90;;;;;;4995446;28;20117;-77
2022/05/03 06:15:21;;;;;;;5.20;4.60;;;14.90;99.90;;;;;;4994312;28;20036;-77
2022/05/03 06:17:47;;;;;;;7.45;4.97;;;14.90;99.90;;;;;;5011759;28;20076;-77
2022/05/03 06:20:16;;;;;;;6.30;5.10;;;15.00;99.90;;;;;;4996024;28;20029;-77
2022/05/03 06:22:42;;;;;;;5.07;4.60;;;15.10;99.90;;;;;;4998270;28;20186;-77
2022/05/03 06:25:09;;;;;;;4.65;4.20;;;15.20;99.90;;;;;;5016543;28;20491;-77
2022/05/03 06:27:39;;;;;;;5.07;4.68;;;15.30;99.90;;;;;;5016979;28;20030;-77
2022/05/03 06:30:07;;;;;;;5.13;4.65;;;15.40;99.90;;;;;;5016713;28;20015;-77
2022/05/03 06:32:37;;;;;;;6.13;5.30;;;15.50;99.90;;;;;;5016886;28;20022;-77
2022/05/03 06:35:03;;;;;;;4.90;4.38;;;15.60;99.90;;;;;;4999362;28;20037;-77
2022/05/03 06:37:29;;;;;;;7.57;4.50;;;15.60;99.90;;;;;;4999236;28;20049;-76
2022/05/03 06:39:55;;;;;;;5.45;4.93;;;15.70;99.90;;;;;;4999109;28;20472;-76
2022/05/03 06:42:20;;;;;;;4.75;3.92;;;15.80;99.90;;;;;;5016758;28;20054;-77
2022/05/03 06:44:47;;;;;;;5.18;4.07;;;15.90;99.90;;;;;;5016856;28;20026;-77
2022/05/03 06:47:13;;;;;;;4.28;3.97;;;15.90;99.90;;;;;;4999057;28;20387;-77
2022/05/03 06:49:39;;;;;;;5.05;4.32;;;16.00;99.90;;;;;;5016595;28;20022;-76
2022/05/03 06:52:05;;;;;;;5.15;4.65;;;16.10;99.90;;;;;;5016498;28;20076;-76
2022/05/03 06:54:30;;;;;;;4.93;4.53;;;16.10;99.90;;;;;;5016591;28;20108;-76
2022/05/03 06:56:56;;;;;;;4.47;4.10;;;16.20;99.90;;;;;;5016458;28;20034;-77
2022/05/03 06:59:22;;;;;;;8.70;4.22;;;16.20;99.90;;;;;;5016515;28;20057;-77
2022/05/03 07:01:47;;;;;;;5.75;4.78;;;16.30;99.90;;;;;;5015996;28;20112;-77
2022/05/03 07:04:13;;;;;;;7.55;4.53;;;16.40;99.90;;;;;;4998526;28;20391;-76
2022/05/03 07:06:39;;;;;;;7.90;4.55;;;16.50;99.90;;;;;;5016094;28;20049;-75
2022/05/03 07:09:05;;;;;;;4.63;4.22;;;16.60;99.90;;;;;;4998376;28;20025;-75
2022/05/03 07:11:31;;;;;;;5.47;4.55;;;16.60;99.90;;;;;;5015866;28;20052;-76
2022/05/03 07:13:57;;;;;;;4.07;3.78;;;16.70;99.90;;;;;;5015912;28;20173;-76
2022/05/03 07:16:23;;;;;;;7.60;4.93;;;16.70;99.90;;;;;;4997922;28;20065;-75
2022/05/03 07:24:17;;;;;;;5.97;4.32;;;16.90;99.90;;;;;;5014915;28;20072;-76
2022/05/03 07:26:43;;;;;;;4.32;3.92;;;16.90;99.90;;;;;;4997626;28;20050;-76
2022/05/03 07:29:09;;;;;;;5.80;3.75;;;16.90;99.90;;;;;;5015556;28;20104;-76
2022/05/03 07:31:35;;;;;;;4.85;3.58;;;16.90;99.90;;;;;;4997095;28;20449;-75
2022/05/03 07:34:01;;;;;;;4.22;3.90;;;17.00;99.20;;;;;;5015532;28;20033;-75
2022/05/03 07:36:30;;;;;;;4.57;3.50;;;17.10;98.30;;;;;;4997832;28;20080;-75
2022/05/03 07:38:56;;;;;;;6.45;5.60;;;17.20;99.00;;;;;;5015026;28;20038;-74
2022/05/03 07:41:24;;;;;;;5.13;4.18;;;17.20;99.90;;;;;;5014856;28;20076;-74
2022/05/03 07:43:50;;;;;;;3.90;3.65;;;17.20;99.20;;;;;;5015053;28;20500;-74
2022/05/03 07:46:16;;;;;;;3.75;3.50;;;17.20;98.50;;;;;;4998078;28;20022;-77
2022/05/03 07:48:42;;;;;;;4.13;3.72;;;17.30;98.90;;;;;;4997885;28;20051;-77
2022/05/03 07:51:10;;;;;;;4.90;3.35;;;17.60;99.80;;;;;;5015340;28;20506;-77
2022/05/03 07:53:36;;;;;;;5.45;3.40;;;17.70;97.60;;;;;;5015636;28;20029;-77
2022/05/03 07:56:03;;;;;;;4.78;3.63;;;17.80;98.80;;;;;;5015596;28;20562;-77
2022/05/03 07:58:29;;;;;;;5.57;3.47;;;17.70;98.70;;;;;;4997852;28;20107;-77
2022/05/03 08:00:55;;;;;;;9.43;3.72;;;17.80;98.00;;;;;;4997744;28;20022;-77
2022/05/03 08:03:21;;;;;;;3.70;3.40;;;17.70;98.50;;;;;;4997479;28;20495;-77
2022/05/03 08:05:47;;;;;;;3.97;3.53;;;17.80;97.70;;;;;;5015180;28;20024;-77
2022/05/03 08:08:13;;;;;;;3.78;3.58;;;17.90;97.80;;;;;;5015146;28;20019;-77
2022/05/03 08:10:39;;;;;;;4.22;3.20;;;18.00;98.70;;;;;;4997498;28;20091;-77
2022/05/03 08:13:04;;;;;;;3.42;3.20;;;17.90;97.80;;;;;;5015201;28;20423;-77
2022/05/03 08:15:30;;;;;;;4.80;3.85;;;18.10;97.70;;;;;;5014844;28;20021;-77
2022/05/03 08:17:59;;;;;;;3.83;3.47;;;18.10;97.70;;;;;;5015020;28;20058;-77
2022/05/03 08:20:25;;;;;;;4.95;4.47;;;18.20;97.20;;;;;;5014858;28;20529;-77
2022/05/03 08:22:51;;;;;;;8.35;3.95;;;18.10;98.00;;;;;;4997387;28;20029;-77
2022/05/03 08:25:17;;;;;;;5.25;4.10;;;18.00;97.50;;;;;;5014668;28;20114;-77
2022/05/03 08:27:43;;;;;;;4.10;3.67;;;18.00;98.20;;;;;;5014791;28;20105;-77
2022/05/03 08:30:10;;;;;;;5.18;3.90;;;18.10;97.10;;;;;;5014737;28;20025;-77
2022/05/03 08:32:36;;;;;;;4.05;3.60;;;18.10;97.20;;;;;;5014645;28;20049;-78
2022/05/03 08:35:02;;;;;;;5.45;3.72;;;18.10;97.30;;;;;;5014798;28;20105;-77
2022/05/03 08:42:57;;;;;;;3.60;3.30;;;18.30;96.20;;;;;;5013974;28;20033;-77
2022/05/03 08:45:24;;;;;;;5.68;3.90;;;18.30;96.90;;;;;;4996582;28;20084;-77
2022/05/03 08:47:50;;;;;;;4.10;3.35;;;18.40;97.10;;;;;;5014519;28;20024;-77
2022/05/03 08:50:19;;;;;;;6.03;3.42;;;18.50;96.10;;;;;;5014494;28;20033;-77
2022/05/03 08:52:59;;;;;;;7.22;3.30;;;18.60;96.00;;;;;;5014469;28;20022;-77
2022/05/03 08:55:25;;;;;;;3.42;3.15;;;18.70;95.90;;;;;;4996786;28;20018;-77
2022/05/03 08:57:51;;;;;;;6.90;3.20;;;18.90;95.40;;;;;;5014337;28;20026;-78
2022/05/03 09:00:18;;;;;;;3.10;2.90;;;18.80;94.10;;;;;;5014258;28;20045;-78
2022/05/03 09:02:46;;;;;;;3.70;3.40;;;18.90;94.00;;;;;;5013971;28;20108;-77
2022/05/03 09:05:13;;;;;;;3.90;3.60;;;18.80;94.60;;;;;;4996472;28;20026;-77
2022/05/03 09:07:44;;;;;;;4.00;2.92;;;19.00;94.80;;;;;;5014136;28;20083;-77
2022/05/03 09:10:23;;;;;;;4.40;3.00;;;19.10;93.30;;;;;;5014131;28;20479;-77
2022/05/03 09:12:50;;;;;;;3.45;2.83;;;19.10;93.60;;;;;;4996461;28;20021;-78
2022/05/03 09:15:32;;;;;;;3.30;3.10;;;19.20;94.30;;;;;;5014056;28;20033;-77
2022/05/03 09:26:13;;;;;;;3.42;3.10;;;19.60;91.70;;;;;;5013800;28;20091;-77
2022/05/03 09:28:58;;;;;;;2.97;2.78;;;19.70;92.00;;;;;;5012494;28;20193;-78
2022/05/03 09:31:27;;;;;;;3.50;3.20;;;19.70;90.20;;;;;;5013569;28;20038;-77
2022/05/03 09:33:54;;;;;;;3.42;3.17;;;19.60;91.10;;;;;;5013821;28;20137;-77
2022/05/03 09:36:20;;;;;;;2.88;2.67;;;19.60;91.00;;;;;;5013725;28;20029;-77
2022/05/03 09:38:47;;;;;;;2.88;2.63;;;19.60;91.50;;;;;;5012493;28;20033;-77
2022/05/03 09:41:15;;;;;;;3.20;2.90;;;19.70;91.80;;;;;;5013444;28;20021;-76
2022/05/03 09:44:05;;;;;;;3.05;2.95;;;19.80;91.30;;;;;;5013524;28;20025;-77
2022/05/03 09:46:48;;;;;;;3.22;2.88;;;19.80;92.70;;;;;;5013673;28;20064;-77
2022/05/03 09:49:14;;;;;;;3.53;3.20;;;19.90;91.20;;;;;;5013597;28;20430;-77
2022/05/03 09:51:40;;;;;;;4.13;2.83;;;20.00;93.20;;;;;;4995690;28;20021;-77
2022/05/03 09:54:06;;;;;;;2.90;2.60;;;20.50;92.80;;;;;;5012947;28;20033;-76
2022/05/03 09:56:33;;;;;;;4.32;2.70;;;20.60;91.30;;;;;;5007836;28;20026;-77
2022/05/03 09:59:04;;;;;;;3.50;2.58;;;20.70;90.50;;;;;;4993574;28;20085;-77
2022/05/03 10:01:31;;;;;;;8.90;3.75;;;20.70;91.10;;;;;;4993514;28;20392;-76
2022/05/03 10:03:57;;;;;;;3.38;3.08;;;20.60;91.30;;;;;;4993583;28;20097;-77
2022/05/03 10:06:26;;;;;;;7.15;3.00;;;20.70;92.20;;;;;;4993677;28;20507;-76
2022/05/03 10:08:53;;;;;;;2.80;2.60;;;21.00;90.20;;;;;;4993470;28;20480;-77
2022/05/03 10:11:21;;;;;;;3.45;2.95;;;21.10;90.60;;;;;;4993506;28;20038;-76
2022/05/03 10:13:47;;;;;;;3.40;3.13;;;21.20;89.70;;;;;;4993732;28;20030;-77
2022/05/03 10:21:55;;;;;;;5.60;3.03;;;21.20;85.80;;;;;;4993472;28;20105;-77
2022/05/03 10:24:22;;;;;;;4.97;2.50;;;21.40;87.60;;;;;;4993479;28;20484;-76
2022/05/03 10:26:58;;;;;;;3.45;2.63;;;21.50;85.90;;;;;;4993211;28;20026;-73
2022/05/03 10:29:25;;;;;;;3.63;2.53;;;21.60;84.50;;;;;;4992989;28;20030;-74
2022/05/03 10:31:54;;;;;;;2.85;2.65;;;21.40;84.00;;;;;;4993200;28;20034;-73
2022/05/03 10:34:42;;;;;;;3.83;2.90;;;21.60;82.30;;;;;;4993079;28;20041;-73
2022/05/03 10:37:10;;;;;;;3.60;3.30;;;21.60;82.70;;;;;;4993089;28;20567;-73
2022/05/03 10:39:49;;;;;;;2.90;2.70;;;21.70;81.30;;;;;;4992878;28;20061;-73
2022/05/03 10:42:15;;;;;;;4.10;2.50;;;21.80;82.60;;;;;;4993064;28;20034;-73
2022/05/03 10:44:53;;;;;;;3.03;2.83;;;21.60;83.60;;;;;;4975432;28;20106;-74
2022/05/03 10:47:41;;;;;;;3.58;2.97;;;21.50;82.10;;;;;;4992875;28;20023;-73
2022/05/03 10:50:13;;;;;;;3.60;2.60;;;21.30;81.80;;;;;;4992599;28;20030;-73
2022/05/03 10:52:39;;;;;;;;;;;21.30;80.70;;;;;;4993264;28;20033;-73
2022/05/03 10:55:10;;;;;;;4.95;2.92;;;21.10;80.50;;;;;;4992930;28;19902;-73
2022/05/03 10:58:20;;;;;;;2.73;2.60;;;20.90;79.80;;;;;;4992917;28;20468;-73
2022/05/03 11:01:06;;;;;;;2.63;2.28;;;20.60;80.90;;;;;;4989689;28;20034;-73
2022/05/03 11:03:35;;;;;;;6.95;2.40;;;20.40;80.80;;;;;;4992618;28;20037;-73
2022/05/03 11:06:18;;;;;;;2.75;2.35;;;20.30;82.40;;;;;;4992937;28;20707;-74
2022/05/03 11:09:02;;;;;;;3.10;2.83;;;20.20;83.30;;;;;;4996421;28;20050;-73
2022/05/03 11:11:43;;;;;;;2.90;2.70;;;20.10;84.80;;;;;;4996255;28;20026;-73
2022/05/03 11:14:21;;;;;;;2.37;2.20;;;20.00;83.10;;;;;;4996393;28;20083;-73
2022/05/03 11:16:50;;;;;;;2.42;2.33;;;20.10;84.00;;;;;;4996138;28;20365;-73
2022/05/03 11:19:22;;;;;;;2.25;2.13;;;20.10;82.30;;;;;;4996032;28;20030;-73
2022/05/03 11:21:49;;;;;;;3.25;2.28;;;20.10;82.80;;;;;;4996117;28;20035;-73
2022/05/03 11:24:21;;;;;;;2.38;2.28;;;20.10;84.70;;;;;;4995826;28;20030;-74
2022/05/03 11:26:48;;;;;;;3.05;2.72;;;20.30;82.30;;;;;;4996050;28;20101;-73
2022/05/03 11:29:14;;;;;;;2.08;1.98;;;20.40;83.40;;;;;;4996099;28;20049;-73
2022/05/03 11:31:50;;;;;;;2.40;2.30;;;20.50;82.90;;;;;;4996190;28;20603;-73
2022/05/03 11:34:17;;;;;;;4.15;2.10;;;20.80;83.30;;;;;;4996081;28;20108;-73
2022/05/03 11:36:46;;;;;;;2.63;2.45;;;21.00;82.20;;;;;;4995943;28;20087;-73
2022/05/03 11:39:13;;;;;;;3.03;2.83;;;21.30;80.20;;;;;;5008476;28;20061;-74
2022/05/03 11:41:42;;;;;;;2.53;2.38;;;21.30;80.20;;;;;;5015423;28;20432;-73
2022/05/03 11:44:08;;;;;;;2.72;2.35;;;21.30;79.70;;;;;;5015463;28;20030;-74
2022/05/03 11:46:37;;;;;;;2.40;2.20;;;21.20;77.80;;;;;;4997552;28;20114;-73
2022/05/03 11:49:07;;;;;;;2.67;2.47;;;21.40;77.10;;;;;;5015440;28;20028;-73
2022/05/03 11:57:12;;;;;;;2.75;2.55;;;21.60;75.70;;;;;;5015612;28;20088;-73
2022/05/03 11:59:42;;;;;;;2.70;2.50;;;21.90;73.60;;;;;;5015188;28;20022;-73
2022/05/03 12:02:19;;;;;;;3.13;2.83;;;22.10;73.00;;;;;;5015187;28;20026;-73
2022/05/03 12:05:04;;;;;;;3.03;2.75;;;22.20;71.80;;;;;;4997471;28;20063;-73
2022/05/03 12:07:51;;;;;;;3.33;3.03;;;22.50;72.90;;;;;;5014988;28;20026;-73
2022/05/03 12:10:20;;;;;;;2.78;2.50;;;22.60;75.30;;;;;;5014596;28;20034;-73
2022/05/03 12:13:06;;;;;;;6.70;3.45;;;22.40;71.20;;;;;;5015017;28;20072;-73
2022/05/03 12:15:42;;;;;;;3.80;2.92;;;22.40;71.90;;;;;;4996966;28;20575;-74
2022/05/03 12:18:41;;;;;;;6.07;2.83;;;22.40;73.90;;;;;;5014561;28;20368;-73
2022/05/03 12:21:11;;;;;;;3.35;3.10;;;22.40;76.70;;;;;;4999445;28;20451;-73
2022/05/03 12:23:48;;;;;;;2.85;2.58;;;22.50;75.90;;;;;;5014493;28;20062;-73
2022/05/03 12:26:19;;;;;;;3.65;3.35;;;22.40;73.80;;;;;;4996751;28;20032;-76
2022/05/03 12:28:46;;;;;;;4.53;3.00;;;22.40;76.50;;;;;;5014796;28;20052;-76
2022/05/03 12:31:13;;;;;;;3.33;2.95;;;22.40;76.10;;;;;;5014849;28;20034;-76
2022/05/03 12:33:41;;;;;;;3.22;3.03;;;22.30;72.50;;;;;;5014691;28;20390;-77
2022/05/03 12:36:08;;;;;;;4.65;3.20;;;22.30;72.00;;;;;;5014691;28;20037;-76
2022/05/03 12:38:49;;;;;;;3.60;3.28;;;22.30;75.20;;;;;;5014704;28;20017;-76
2022/05/03 12:41:31;;;;;;;5.82;4.10;;;22.20;72.90;;;;;;5014538;28;20052;-76
2022/05/03 12:44:11;;;;;;;3.97;2.83;;;22.40;73.90;;;;;;5014572;28;20064;-76
2022/05/03 12:46:38;;;;;;;4.53;3.08;;;22.70;72.20;;;;;;4996750;28;20454;-76
2022/05/03 12:49:14;;;;;;;5.10;3.47;;;22.70;74.70;;;;;;4996762;28;20097;-76
2022/05/03 12:51:47;;;;;;;4.70;3.63;;;22.80;72.60;;;;;;5014550;28;20018;-76
2022/05/03 12:54:13;;;;;;;4.18;3.80;;;23.00;73.80;;;;;;5014288;28;20080;-76
2022/05/03 12:59:25;;;;;;;7.70;3.70;;;22.70;71.30;;;;;;5014362;28;20068;-76
2022/05/03 13:01:54;;;;;;;5.18;3.72;;;22.70;72.40;;;;;;5014031;28;20472;-76
2022/05/03 13:04:20;;;;;;;6.63;3.50;;;22.70;73.30;;;;;;5013919;28;20029;-76
2022/05/03 13:06:47;;;;;;;3.55;3.15;;;22.80;72.10;;;;;;5013918;28;20049;-76
2022/05/03 13:09:13;;;;;;;5.15;2.95;;;22.70;73.30;;;;;;5027994;23;20576;-76
2022/05/03 13:11:39;;;;;;;4.70;4.30;;;22.70;74.90;;;;;;5012660;28;20026;-76
2022/05/03 13:14:09;;;;;;;4.07;3.70;;;22.70;76.20;;;;;;5013986;28;20025;-77
2022/05/03 13:16:36;;;;;;;4.15;3.67;;;22.70;75.30;;;;;;5014069;28;20033;-76
2022/05/03 13:19:02;;;;;;;7.72;3.65;;;22.70;74.20;;;;;;5013832;28;20026;-77
2022/05/03 13:21:28;;;;;;;3.88;3.58;;;22.80;73.80;;;;;;5013978;28;20057;-76
2022/05/03 13:23:54;;;;;;;3.92;3.63;;;22.70;72.50;;;;;;5013932;28;20064;-76
2022/05/03 13:26:21;;;;;;;4.28;3.85;;;23.00;71.90;;;;;;5013829;28;20026;-76
2022/05/03 13:28:47;;;;;;;4.43;3.75;;;23.20;71.80;;;;;;5013337;28;20022;-76
2022/05/03 13:31:13;;;;;;;3.63;3.33;;;23.50;71.00;;;;;;5013412;28;20021;-76
2022/05/03 13:33:39;;;;;;;3.40;3.17;;;23.50;70.30;;;;;;5013635;28;20032;-76
2022/05/03 13:41:35;;;;;;;4.82;3.00;;;23.10;68.50;;;;;;5013728;28;20036;-76
2022/05/03 13:44:02;;;;;;;3.70;3.40;;;23.00;67.10;;;;;;4996034;28;20476;-76
2022/05/03 13:46:28;;;;;;;3.15;2.95;;;23.20;68.80;;;;;;5013353;28;20079;-76
2022/05/03 13:48:54;;;;;;;3.10;2.90;;;23.50;69.50;;;;;;5013490;28;20022;-76
2022/05/03 13:51:23;;;;;;;3.60;3.00;;;23.70;67.90;;;;;;5013433;28;20471;-76
2022/05/03 13:53:48;;;;;;;4.82;3.95;;;24.00;67.80;;;;;;4995683;28;20069;-76